sensor_id;sensor_type;location;lat;lon;timestamp;temperature;humidity
13806;DHT22;6974;53.606;9.872;2022-08-18T00:02:04;21.70;99.90
13806;DHT22;6974;53.606;9.872;2022-08-18T00:04:34;21.60;99.90
13806;DHT22;6974;53.606;9.872;2022-08-18T00:07:03;21.60;99.90
13806;DHT22;6974;53.606;9.872;2022-08-18T00:09:31;21.60;99.90
13806;DHT22;6974;53.606;9.872;2022-08-18T00:12:01;21.50;99.90
13806;DHT22;6974;53.606;9.872;2022-08-18T00:14:28;21.50;99.90
13806;DHT22;6974;53.606;9.872;2022-08-18T00:16:56;21.40;99.90
13806;DHT22;6974;53.606;9.872;2022-08-18T00:19:24;21.30;99.90
13806;DHT22;6974;53.606;9.872;2022-08-18T00:21:52;21.40;99.90
13806;DHT22;6974;53.606;9.872;2022-08-18T00:24:20;21.30;99.90
13806;DHT22;6974;53.606;9.872;2022-08-18T00:26:47;21.30;99.90
13806;DHT22;6974;53.606;9.872;2022-08-18T00:29:14;21.30;99.90
13806;DHT22;6974;53.606;9.872;2022-08-18T00:31:41;21.20;99.90
13806;DHT22;6974;53.606;9.872;2022-08-18T00:34:08;21.20;99.90
13806;DHT22;6974;53.606;9.872;2022-08-18T00:36:35;21.20;99.90
13806;DHT22;6974;53.606;9.872;2022-08-18T00:39:04;21.20;99.90
13806;DHT22;6974;53.606;9.872;2022-08-18T00:41:31;21.10;99.90
13806;DHT22;6974;53.606;9.872;2022-08-18T00:44:00;21.10;99.90
13806;DHT22;6974;53.606;9.872;2022-08-18T00:46:31;21.10;99.90
13806;DHT22;6974;53.606;9.872;2022-08-18T00:48:59;21.00;99.90
13806;DHT22;6974;53.606;9.872;2022-08-18T00:51:31;21.00;99.90
13806;DHT22;6974;53.606;9.872;2022-08-18T00:54:02;21.00;99.90
13806;DHT22;6974;53.606;9.872;2022-08-18T00:56:38;20.90;99.90
13806;DHT22;6974;53.606;9.872;2022-08-18T00:59:10;20.90;99.90
13806;DHT22;6974;53.606;9.872;2022-08-18T01:01:38;20.90;99.90
13806;DHT22;6974;53.606;9.872;2022-08-18T01:04:10;20.90;99.90
13806;DHT22;6974;53.606;9.872;2022-08-18T01:06:42;20.90;99.90
13806;DHT22;6974;53.606;9.872;2022-08-18T01:09:11;20.80;99.90
13806;DHT22;6974;53.606;9.872;2022-08-18T01:11:40;20.90;99.90
13806;DHT22;6974;53.606;9.872;2022-08-18T01:14:08;20.90;99.90
13806;DHT22;6974;53.606;9.872;2022-08-18T01:16:36;21.00;99.90
13806;DHT22;6974;53.606;9.872;2022-08-18T01:19:22;21.10;99.90
13806;DHT22;6974;53.606;9.872;2022-08-18T01:22:12;21.10;99.90
13806;DHT22;6974;53.606;9.872;2022-08-18T01:24:42;21.10;99.90
13806;DHT22;6974;53.606;9.872;2022-08-18T01:27:27;21.10;99.90
13806;DHT22;6974;53.606;9.872;2022-08-18T01:30:01;21.10;99.90
13806;DHT22;6974;53.606;9.872;2022-08-18T01:32:29;21.10;99.90
13806;DHT22;6974;53.606;9.872;2022-08-18T01:34:56;21.00;99.90
13806;DHT22;6974;53.606;9.872;2022-08-18T01:37:23;21.00;99.90
13806;DHT22;6974;53.606;9.872;2022-08-18T01:39:52;21.00;99.90
13806;DHT22;6974;53.606;9.872;2022-08-18T01:42:19;21.00;99.90
13806;DHT22;6974;53.606;9.872;2022-08-18T01:44:48;21.00;99.90
13806;DHT22;6974;53.606;9.872;2022-08-18T01:47:17;21.00;99.90
13806;DHT22;6974;53.606;9.872;2022-08-18T01:49:45;20.90;99.90
13806;DHT22;6974;53.606;9.872;2022-08-18T01:52:25;20.90;99.90
13806;DHT22;6974;53.606;9.872;2022-08-18T01:54:55;20.90;99.90
13806;DHT22;6974;53.606;9.872;2022-08-18T01:57:23;20.90;99.90
13806;DHT22;6974;53.606;9.872;2022-08-18T01:59:50;20.90;99.90
13806;DHT22;6974;53.606;9.872;2022-08-18T02:02:21;20.90;99.90
13806;DHT22;6974;53.606;9.872;2022-08-18T02:04:50;20.90;99.90
13806;DHT22;6974;53.606;9.872;2022-08-18T02:07:19;20.90;99.90
13806;DHT22;6974;53.606;9.872;2022-08-18T02:09:47;20.90;99.90
13806;DHT22;6974;53.606;9.872;2022-08-18T02:12:15;20.80;99.90
13806;DHT22;6974;53.606;9.872;2022-08-18T02:14:42;20.90;99.90
13806;DHT22;6974;53.606;9.872;2022-08-18T02:17:11;20.80;99.90
13806;DHT22;6974;53.606;9.872;2022-08-18T02:19:41;20.80;99.90
13806;DHT22;6974;53.606;9.872;2022-08-18T02:22:10;20.80;99.90
13806;DHT22;6974;53.606;9.872;2022-08-18T02:24:38;20.80;99.90
13806;DHT22;6974;53.606;9.872;2022-08-18T02:27:07;20.90;99.90
13806;DHT22;6974;53.606;9.872;2022-08-18T02:29:36;20.90;99.90
13806;DHT22;6974;53.606;9.872;2022-08-18T02:32:04;21.00;99.90
13806;DHT22;6974;53.606;9.872;2022-08-18T02:34:33;21.00;99.90
13806;DHT22;6974;53.606;9.872;2022-08-18T02:37:00;21.00;99.90
13806;DHT22;6974;53.606;9.872;2022-08-18T02:39:28;20.90;99.90
13806;DHT22;6974;53.606;9.872;2022-08-18T02:41:55;20.90;99.90
13806;DHT22;6974;53.606;9.872;2022-08-18T02:44:22;20.90;99.90
13806;DHT22;6974;53.606;9.872;2022-08-18T02:46:52;20.90;99.90
13806;DHT22;6974;53.606;9.872;2022-08-18T02:49:20;20.90;99.90
13806;DHT22;6974;53.606;9.872;2022-08-18T02:51:47;20.90;99.90
13806;DHT22;6974;53.606;9.872;2022-08-18T02:54:16;20.80;99.90
13806;DHT22;6974;53.606;9.872;2022-08-18T02:56:44;20.80;99.90
13806;DHT22;6974;53.606;9.872;2022-08-18T02:59:15;20.80;99.90
13806;DHT22;6974;53.606;9.872;2022-08-18T03:01:46;20.80;99.90
13806;DHT22;6974;53.606;9.872;2022-08-18T03:04:19;20.80;99.90
13806;DHT22;6974;53.606;9.872;2022-08-18T03:06:47;20.80;99.90
13806;DHT22;6974;53.606;9.872;2022-08-18T03:09:15;20.80;99.90
13806;DHT22;6974;53.606;9.872;2022-08-18T03:11:43;20.70;99.90
13806;DHT22;6974;53.606;9.872;2022-08-18T03:14:11;20.70;99.90
13806;DHT22;6974;53.606;9.872;2022-08-18T03:16:39;20.70;99.90
13806;DHT22;6974;53.606;9.872;2022-08-18T03:19:06;20.70;99.90
13806;DHT22;6974;53.606;9.872;2022-08-18T03:21:36;20.70;99.90
13806;DHT22;6974;53.606;9.872;2022-08-18T03:24:04;20.60;99.90
13806;DHT22;6974;53.606;9.872;2022-08-18T03:26:32;20.70;99.90
13806;DHT22;6974;53.606;9.872;2022-08-18T03:29:00;20.70;99.90
13806;DHT22;6974;53.606;9.872;2022-08-18T03:31:29;20.70;99.90
13806;DHT22;6974;53.606;9.872;2022-08-18T03:33:58;20.70;99.90
13806;DHT22;6974;53.606;9.872;2022-08-18T03:36:29;20.60;99.90
13806;DHT22;6974;53.606;9.872;2022-08-18T03:39:00;20.60;99.90
13806;DHT22;6974;53.606;9.872;2022-08-18T03:41:29;20.60;99.90
13806;DHT22;6974;53.606;9.872;2022-08-18T03:43:56;20.60;99.90
13806;DHT22;6974;53.606;9.872;2022-08-18T03:46:24;20.50;99.90
13806;DHT22;6974;53.606;9.872;2022-08-18T03:48:51;20.50;99.90
13806;DHT22;6974;53.606;9.872;2022-08-18T03:51:21;20.50;99.90
13806;DHT22;6974;53.606;9.872;2022-08-18T03:53:51;20.50;99.90
13806;DHT22;6974;53.606;9.872;2022-08-18T03:56:23;20.40;99.90
13806;DHT22;6974;53.606;9.872;2022-08-18T03:58:53;20.40;99.90
13806;DHT22;6974;53.606;9.872;2022-08-18T04:01:23;20.40;99.90
13806;DHT22;6974;53.606;9.872;2022-08-18T04:03:52;20.40;99.90
13806;DHT22;6974;53.606;9.872;2022-08-18T04:06:24;20.40;99.90
13806;DHT22;6974;53.606;9.872;2022-08-18T04:08:52;20.40;99.90
13806;DHT22;6974;53.606;9.872;2022-08-18T04:11:22;20.40;99.90
13806;DHT22;6974;53.606;9.872;2022-08-18T04:13:50;20.40;99.90
13806;DHT22;6974;53.606;9.872;2022-08-18T04:16:16;20.40;99.90
13806;DHT22;6974;53.606;9.872;2022-08-18T04:18:43;20.40;99.90
13806;DHT22;6974;53.606;9.872;2022-08-18T04:21:11;20.40;99.90
13806;DHT22;6974;53.606;9.872;2022-08-18T04:23:40;20.40;99.90
13806;DHT22;6974;53.606;9.872;2022-08-18T04:26:08;20.40;99.90
13806;DHT22;6974;53.606;9.872;2022-08-18T04:28:38;20.30;99.90
13806;DHT22;6974;53.606;9.872;2022-08-18T04:31:08;20.30;99.90
13806;DHT22;6974;53.606;9.872;2022-08-18T04:33:36;20.30;99.90
13806;DHT22;6974;53.606;9.872;2022-08-18T04:36:08;20.30;99.90
13806;DHT22;6974;53.606;9.872;2022-08-18T04:38:36;20.30;99.90
13806;DHT22;6974;53.606;9.872;2022-08-18T04:41:04;20.30;99.90
13806;DHT22;6974;53.606;9.872;2022-08-18T04:43:32;20.30;99.90
13806;DHT22;6974;53.606;9.872;2022-08-18T04:46:00;20.30;99.90
13806;DHT22;6974;53.606;9.872;2022-08-18T04:48:29;20.40;99.90
13806;DHT22;6974;53.606;9.872;2022-08-18T04:51:03;20.40;99.90
13806;DHT22;6974;53.606;9.872;2022-08-18T04:53:31;20.40;99.90
13806;DHT22;6974;53.606;9.872;2022-08-18T04:56:18;20.40;99.90
13806;DHT22;6974;53.606;9.872;2022-08-18T04:58:50;20.40;99.90
13806;DHT22;6974;53.606;9.872;2022-08-18T05:01:20;20.40;99.90
13806;DHT22;6974;53.606;9.872;2022-08-18T05:03:48;20.50;99.90
13806;DHT22;6974;53.606;9.872;2022-08-18T05:06:15;20.50;99.90
13806;DHT22;6974;53.606;9.872;2022-08-18T05:08:43;20.50;99.90
13806;DHT22;6974;53.606;9.872;2022-08-18T05:11:11;20.50;99.90
13806;DHT22;6974;53.606;9.872;2022-08-18T05:13:39;20.60;99.90
13806;DHT22;6974;53.606;9.872;2022-08-18T05:16:07;20.60;99.90
13806;DHT22;6974;53.606;9.872;2022-08-18T05:18:36;20.60;99.90
13806;DHT22;6974;53.606;9.872;2022-08-18T05:21:05;20.70;99.90
13806;DHT22;6974;53.606;9.872;2022-08-18T05:23:36;20.70;99.90
13806;DHT22;6974;53.606;9.872;2022-08-18T05:26:04;20.70;99.90
13806;DHT22;6974;53.606;9.872;2022-08-18T05:28:31;20.80;99.90
13806;DHT22;6974;53.606;9.872;2022-08-18T05:31:05;20.80;99.90
13806;DHT22;6974;53.606;9.872;2022-08-18T05:33:32;20.80;99.90
13806;DHT22;6974;53.606;9.872;2022-08-18T05:36:03;20.90;99.90
13806;DHT22;6974;53.606;9.872;2022-08-18T05:38:38;20.90;99.90
13806;DHT22;6974;53.606;9.872;2022-08-18T05:41:10;20.90;99.90
13806;DHT22;6974;53.606;9.872;2022-08-18T05:43:38;20.90;99.90
13806;DHT22;6974;53.606;9.872;2022-08-18T05:46:08;20.90;99.90
13806;DHT22;6974;53.606;9.872;2022-08-18T05:48:35;21.00;99.90
13806;DHT22;6974;53.606;9.872;2022-08-18T05:51:11;21.00;99.90
13806;DHT22;6974;53.606;9.872;2022-08-18T05:53:40;21.10;99.90
13806;DHT22;6974;53.606;9.872;2022-08-18T05:56:29;21.10;99.90
13806;DHT22;6974;53.606;9.872;2022-08-18T05:59:20;21.10;99.90
13806;DHT22;6974;53.606;9.872;2022-08-18T06:01:52;21.20;99.90
13806;DHT22;6974;53.606;9.872;2022-08-18T06:04:29;21.20;99.90
13806;DHT22;6974;53.606;9.872;2022-08-18T06:07:04;21.30;99.90
13806;DHT22;6974;53.606;9.872;2022-08-18T06:09:36;21.30;99.90
13806;DHT22;6974;53.606;9.872;2022-08-18T06:12:21;21.40;99.90
13806;DHT22;6974;53.606;9.872;2022-08-18T06:14:51;21.40;99.90
13806;DHT22;6974;53.606;9.872;2022-08-18T06:17:50;21.50;99.90
13806;DHT22;6974;53.606;9.872;2022-08-18T06:20:27;21.50;99.90
13806;DHT22;6974;53.606;9.872;2022-08-18T06:23:07;21.50;99.90
13806;DHT22;6974;53.606;9.872;2022-08-18T06:25:57;21.60;99.90
13806;DHT22;6974;53.606;9.872;2022-08-18T06:28:35;21.60;99.90
13806;DHT22;6974;53.606;9.872;2022-08-18T06:31:13;21.60;99.90
13806;DHT22;6974;53.606;9.872;2022-08-18T06:33:47;21.60;99.90
13806;DHT22;6974;53.606;9.872;2022-08-18T06:36:32;21.60;99.90
13806;DHT22;6974;53.606;9.872;2022-08-18T06:39:07;21.60;99.90
13806;DHT22;6974;53.606;9.872;2022-08-18T06:41:40;21.60;99.90
13806;DHT22;6974;53.606;9.872;2022-08-18T06:44:10;21.60;99.90
13806;DHT22;6974;53.606;9.872;2022-08-18T06:46:44;21.60;99.90
13806;DHT22;6974;53.606;9.872;2022-08-18T06:49:31;21.60;99.90
13806;DHT22;6974;53.606;9.872;2022-08-18T06:52:16;21.60;99.90
13806;DHT22;6974;53.606;9.872;2022-08-18T06:54:44;21.60;99.90
13806;DHT22;6974;53.606;9.872;2022-08-18T06:57:23;21.60;99.90
13806;DHT22;6974;53.606;9.872;2022-08-18T06:59:55;21.60;99.90
13806;DHT22;6974;53.606;9.872;2022-08-18T07:02:25;21.60;99.90
13806;DHT22;6974;53.606;9.872;2022-08-18T07:04:59;21.50;99.90
13806;DHT22;6974;53.606;9.872;2022-08-18T07:07:32;21.50;99.90
13806;DHT22;6974;53.606;9.872;2022-08-18T07:10:04;21.50;99.90
13806;DHT22;6974;53.606;9.872;2022-08-18T07:12:31;21.50;99.90
13806;DHT22;6974;53.606;9.872;2022-08-18T07:15:01;21.50;99.90
13806;DHT22;6974;53.606;9.872;2022-08-18T07:17:32;21.50;99.90
13806;DHT22;6974;53.606;9.872;2022-08-18T07:20:04;21.50;99.90
13806;DHT22;6974;53.606;9.872;2022-08-18T07:22:50;21.50;99.90
13806;DHT22;6974;53.606;9.872;2022-08-18T07:25:23;21.50;99.90
13806;DHT22;6974;53.606;9.872;2022-08-18T07:27:51;21.50;99.90
13806;DHT22;6974;53.606;9.872;2022-08-18T07:30:30;21.50;99.90
13806;DHT22;6974;53.606;9.872;2022-08-18T07:33:03;21.50;99.90
13806;DHT22;6974;53.606;9.872;2022-08-18T07:35:35;21.50;99.90
13806;DHT22;6974;53.606;9.872;2022-08-18T07:38:09;21.50;99.90
13806;DHT22;6974;53.606;9.872;2022-08-18T07:40:48;21.60;99.90
13806;DHT22;6974;53.606;9.872;2022-08-18T07:43:21;21.60;99.90
13806;DHT22;6974;53.606;9.872;2022-08-18T07:45:56;21.60;99.90
13806;DHT22;6974;53.606;9.872;2022-08-18T07:48:30;21.60;99.90
13806;DHT22;6974;53.606;9.872;2022-08-18T07:51:04;21.60;99.90
13806;DHT22;6974;53.606;9.872;2022-08-18T07:53:42;21.50;99.90
13806;DHT22;6974;53.606;9.872;2022-08-18T07:56:17;21.50;99.90
13806;DHT22;6974;53.606;9.872;2022-08-18T07:58:52;21.50;99.90
13806;DHT22;6974;53.606;9.872;2022-08-18T08:01:29;21.50;99.90
13806;DHT22;6974;53.606;9.872;2022-08-18T08:04:04;21.50;99.90
13806;DHT22;6974;53.606;9.872;2022-08-18T08:06:38;21.50;99.90
13806;DHT22;6974;53.606;9.872;2022-08-18T08:09:11;21.50;99.90
13806;DHT22;6974;53.606;9.872;2022-08-18T08:11:50;21.50;99.90
13806;DHT22;6974;53.606;9.872;2022-08-18T08:14:36;21.60;99.90
13806;DHT22;6974;53.606;9.872;2022-08-18T08:17:11;21.60;99.90
13806;DHT22;6974;53.606;9.872;2022-08-18T08:20:06;21.70;99.90
13806;DHT22;6974;53.606;9.872;2022-08-18T08:22:38;21.80;99.90
13806;DHT22;6974;53.606;9.872;2022-08-18T08:25:11;21.80;99.90
13806;DHT22;6974;53.606;9.872;2022-08-18T08:27:56;21.90;99.90
13806;DHT22;6974;53.606;9.872;2022-08-18T08:30:27;22.00;99.90
13806;DHT22;6974;53.606;9.872;2022-08-18T08:33:03;22.00;99.90
13806;DHT22;6974;53.606;9.872;2022-08-18T08:35:36;22.10;99.90
13806;DHT22;6974;53.606;9.872;2022-08-18T08:38:09;22.10;99.90
13806;DHT22;6974;53.606;9.872;2022-08-18T08:40:45;22.10;99.90
13806;DHT22;6974;53.606;9.872;2022-08-18T08:43:18;22.20;99.90
13806;DHT22;6974;53.606;9.872;2022-08-18T08:45:59;22.20;99.90
13806;DHT22;6974;53.606;9.872;2022-08-18T08:48:31;22.20;99.90
13806;DHT22;6974;53.606;9.872;2022-08-18T08:51:02;22.30;99.90
13806;DHT22;6974;53.606;9.872;2022-08-18T08:53:37;22.30;99.90
13806;DHT22;6974;53.606;9.872;2022-08-18T08:56:07;22.40;99.90
13806;DHT22;6974;53.606;9.872;2022-08-18T08:58:41;22.50;99.90
13806;DHT22;6974;53.606;9.872;2022-08-18T09:01:15;22.60;99.90
13806;DHT22;6974;53.606;9.872;2022-08-18T09:03:48;22.70;99.90
13806;DHT22;6974;53.606;9.872;2022-08-18T09:06:22;22.70;99.90
13806;DHT22;6974;53.606;9.872;2022-08-18T09:09:20;22.70;99.90
13806;DHT22;6974;53.606;9.872;2022-08-18T09:12:08;22.80;99.90
13806;DHT22;6974;53.606;9.872;2022-08-18T09:15:02;22.90;99.90
13806;DHT22;6974;53.606;9.872;2022-08-18T09:17:48;22.80;99.90
13806;DHT22;6974;53.606;9.872;2022-08-18T09:20:36;22.80;99.90
13806;DHT22;6974;53.606;9.872;2022-08-18T09:23:08;22.80;99.90
13806;DHT22;6974;53.606;9.872;2022-08-18T09:25:46;22.80;99.90
13806;DHT22;6974;53.606;9.872;2022-08-18T09:28:16;22.80;99.90
13806;DHT22;6974;53.606;9.872;2022-08-18T09:31:13;22.90;99.90
13806;DHT22;6974;53.606;9.872;2022-08-18T09:34:00;22.80;99.90
13806;DHT22;6974;53.606;9.872;2022-08-18T09:36:42;22.90;99.90
13806;DHT22;6974;53.606;9.872;2022-08-18T09:39:20;23.10;99.90
13806;DHT22;6974;53.606;9.872;2022-08-18T09:42:08;23.20;99.90
13806;DHT22;6974;53.606;9.872;2022-08-18T09:44:56;23.30;99.90
13806;DHT22;6974;53.606;9.872;2022-08-18T09:48:06;23.30;99.90
13806;DHT22;6974;53.606;9.872;2022-08-18T09:50:57;23.20;99.90
13806;DHT22;6974;53.606;9.872;2022-08-18T09:53:55;23.20;99.90
13806;DHT22;6974;53.606;9.872;2022-08-18T10:03:21;23.30;99.90
13806;DHT22;6974;53.606;9.872;2022-08-18T10:06:12;23.30;99.90
13806;DHT22;6974;53.606;9.872;2022-08-18T10:12:24;23.80;99.90
13806;DHT22;6974;53.606;9.872;2022-08-18T10:18:15;23.80;99.90
13806;DHT22;6974;53.606;9.872;2022-08-18T10:20:55;23.80;99.90
13806;DHT22;6974;53.606;9.872;2022-08-18T10:23:49;23.70;99.90
13806;DHT22;6974;53.606;9.872;2022-08-18T10:29:44;23.70;99.90
13806;DHT22;6974;53.606;9.872;2022-08-18T10:32:24;23.70;99.90
13806;DHT22;6974;53.606;9.872;2022-08-18T10:35:01;23.70;99.90
13806;DHT22;6974;53.606;9.872;2022-08-18T10:37:35;23.60;99.90
13806;DHT22;6974;53.606;9.872;2022-08-18T10:40:12;23.60;99.90
13806;DHT22;6974;53.606;9.872;2022-08-18T10:42:43;23.60;99.90
13806;DHT22;6974;53.606;9.872;2022-08-18T10:45:18;23.60;99.90
13806;DHT22;6974;53.606;9.872;2022-08-18T10:47:57;23.60;99.90
13806;DHT22;6974;53.606;9.872;2022-08-18T10:50:25;23.70;99.90
13806;DHT22;6974;53.606;9.872;2022-08-18T10:53:05;23.70;99.90
13806;DHT22;6974;53.606;9.872;2022-08-18T10:55:44;23.70;99.90
13806;DHT22;6974;53.606;9.872;2022-08-18T11:01:26;23.80;99.90
13806;DHT22;6974;53.606;9.872;2022-08-18T11:04:02;23.80;99.90
13806;DHT22;6974;53.606;9.872;2022-08-18T11:06:38;23.80;99.90
13806;DHT22;6974;53.606;9.872;2022-08-18T11:09:09;23.80;99.90
13806;DHT22;6974;53.606;9.872;2022-08-18T11:11:38;23.80;99.90
13806;DHT22;6974;53.606;9.872;2022-08-18T11:14:24;23.90;99.90
13806;DHT22;6974;53.606;9.872;2022-08-18T11:16:57;24.10;99.90
13806;DHT22;6974;53.606;9.872;2022-08-18T11:19:27;24.40;99.90
13806;DHT22;6974;53.606;9.872;2022-08-18T11:21:54;24.70;99.90
13806;DHT22;6974;53.606;9.872;2022-08-18T11:24:24;24.90;99.90
13806;DHT22;6974;53.606;9.872;2022-08-18T11:26:54;25.20;99.90
13806;DHT22;6974;53.606;9.872;2022-08-18T11:29:25;25.40;99.90
13806;DHT22;6974;53.606;9.872;2022-08-18T11:31:55;25.60;99.90
13806;DHT22;6974;53.606;9.872;2022-08-18T11:34:28;25.60;99.90
13806;DHT22;6974;53.606;9.872;2022-08-18T11:36:58;25.50;99.90
13806;DHT22;6974;53.606;9.872;2022-08-18T11:39:28;25.60;99.90
13806;DHT22;6974;53.606;9.872;2022-08-18T11:41:56;25.80;99.90
13806;DHT22;6974;53.606;9.872;2022-08-18T11:44:27;26.10;99.90
13806;DHT22;6974;53.606;9.872;2022-08-18T11:47:07;26.30;99.90
13806;DHT22;6974;53.606;9.872;2022-08-18T11:49:35;26.50;99.90
13806;DHT22;6974;53.606;9.872;2022-08-18T11:52:16;26.70;99.90
13806;DHT22;6974;53.606;9.872;2022-08-18T11:54:47;26.60;99.90
13806;DHT22;6974;53.606;9.872;2022-08-18T11:57:38;26.50;99.90
13806;DHT22;6974;53.606;9.872;2022-08-18T12:03:33;26.60;99.90
13806;DHT22;6974;53.606;9.872;2022-08-18T12:06:11;26.90;99.90
13806;DHT22;6974;53.606;9.872;2022-08-18T12:08:50;27.10;99.90
13806;DHT22;6974;53.606;9.872;2022-08-18T12:11:21;27.30;99.90
13806;DHT22;6974;53.606;9.872;2022-08-18T12:13:58;27.50;99.90
13806;DHT22;6974;53.606;9.872;2022-08-18T12:16:37;27.30;99.90
13806;DHT22;6974;53.606;9.872;2022-08-18T12:19:07;27.10;99.90
13806;DHT22;6974;53.606;9.872;2022-08-18T12:21:36;26.90;99.90
13806;DHT22;6974;53.606;9.872;2022-08-18T12:24:05;26.80;99.90
13806;DHT22;6974;53.606;9.872;2022-08-18T12:26:35;26.60;99.90
13806;DHT22;6974;53.606;9.872;2022-08-18T12:29:02;26.80;99.90
13806;DHT22;6974;53.606;9.872;2022-08-18T12:31:29;26.90;99.90
13806;DHT22;6974;53.606;9.872;2022-08-18T12:33:56;26.90;99.90
13806;DHT22;6974;53.606;9.872;2022-08-18T12:36:23;27.00;99.90
13806;DHT22;6974;53.606;9.872;2022-08-18T12:38:50;27.10;99.90
13806;DHT22;6974;53.606;9.872;2022-08-18T12:41:17;27.00;99.90
13806;DHT22;6974;53.606;9.872;2022-08-18T12:43:45;27.00;99.90
13806;DHT22;6974;53.606;9.872;2022-08-18T12:46:13;27.20;99.90
13806;DHT22;6974;53.606;9.872;2022-08-18T12:48:40;27.20;99.90
13806;DHT22;6974;53.606;9.872;2022-08-18T12:51:07;27.40;99.90
13806;DHT22;6974;53.606;9.872;2022-08-18T12:53:34;27.50;99.90
13806;DHT22;6974;53.606;9.872;2022-08-18T12:56:01;27.60;99.90
13806;DHT22;6974;53.606;9.872;2022-08-18T12:58:28;27.50;99.90
13806;DHT22;6974;53.606;9.872;2022-08-18T13:00:57;27.30;99.90
13806;DHT22;6974;53.606;9.872;2022-08-18T13:03:23;27.10;99.90
13806;DHT22;6974;53.606;9.872;2022-08-18T13:05:50;26.90;99.90
13806;DHT22;6974;53.606;9.872;2022-08-18T13:08:20;26.70;99.90
13806;DHT22;6974;53.606;9.872;2022-08-18T13:10:47;26.60;99.90
13806;DHT22;6974;53.606;9.872;2022-08-18T13:13:16;26.50;99.90
13806;DHT22;6974;53.606;9.872;2022-08-18T13:15:43;26.60;99.90
13806;DHT22;6974;53.606;9.872;2022-08-18T13:18:11;26.70;99.90
13806;DHT22;6974;53.606;9.872;2022-08-18T13:20:39;26.80;99.90
13806;DHT22;6974;53.606;9.872;2022-08-18T13:23:06;27.00;99.90
13806;DHT22;6974;53.606;9.872;2022-08-18T13:25:33;27.20;99.90
13806;DHT22;6974;53.606;9.872;2022-08-18T13:28:00;27.20;99.90
13806;DHT22;6974;53.606;9.872;2022-08-18T13:30:27;27.30;99.90
13806;DHT22;6974;53.606;9.872;2022-08-18T13:32:54;27.30;99.90
13806;DHT22;6974;53.606;9.872;2022-08-18T13:35:22;27.20;99.90
13806;DHT22;6974;53.606;9.872;2022-08-18T13:37:49;27.10;99.90
13806;DHT22;6974;53.606;9.872;2022-08-18T13:40:16;27.10;99.90
13806;DHT22;6974;53.606;9.872;2022-08-18T13:42:45;27.00;99.90
13806;DHT22;6974;53.606;9.872;2022-08-18T13:45:15;27.00;99.90
13806;DHT22;6974;53.606;9.872;2022-08-18T13:47:42;26.90;99.90
13806;DHT22;6974;53.606;9.872;2022-08-18T13:50:10;26.80;99.90
13806;DHT22;6974;53.606;9.872;2022-08-18T13:52:39;26.70;99.90
13806;DHT22;6974;53.606;9.872;2022-08-18T13:55:09;26.80;99.90
13806;DHT22;6974;53.606;9.872;2022-08-18T13:57:37;26.80;99.90
13806;DHT22;6974;53.606;9.872;2022-08-18T14:00:08;26.90;99.90
13806;DHT22;6974;53.606;9.872;2022-08-18T14:02:37;27.10;99.90
13806;DHT22;6974;53.606;9.872;2022-08-18T14:05:05;27.20;99.90
13806;DHT22;6974;53.606;9.872;2022-08-18T14:07:33;27.50;99.90
13806;DHT22;6974;53.606;9.872;2022-08-18T14:10:02;27.80;99.90
13806;DHT22;6974;53.606;9.872;2022-08-18T14:12:33;27.90;99.90
13806;DHT22;6974;53.606;9.872;2022-08-18T14:15:01;27.90;99.90
13806;DHT22;6974;53.606;9.872;2022-08-18T14:17:27;27.70;99.90
13806;DHT22;6974;53.606;9.872;2022-08-18T14:19:54;27.80;99.90
13806;DHT22;6974;53.606;9.872;2022-08-18T14:22:38;27.80;99.90
13806;DHT22;6974;53.606;9.872;2022-08-18T14:25:24;27.70;99.90
13806;DHT22;6974;53.606;9.872;2022-08-18T14:28:08;27.70;99.90
13806;DHT22;6974;53.606;9.872;2022-08-18T14:30:36;27.70;99.90
13806;DHT22;6974;53.606;9.872;2022-08-18T14:33:04;27.70;99.90
13806;DHT22;6974;53.606;9.872;2022-08-18T14:35:32;27.70;99.90
13806;DHT22;6974;53.606;9.872;2022-08-18T14:37:59;27.80;99.90
13806;DHT22;6974;53.606;9.872;2022-08-18T14:40:27;27.90;99.90
13806;DHT22;6974;53.606;9.872;2022-08-18T14:42:54;27.90;99.90
13806;DHT22;6974;53.606;9.872;2022-08-18T14:45:22;27.80;99.90
13806;DHT22;6974;53.606;9.872;2022-08-18T14:47:49;27.60;99.90
13806;DHT22;6974;53.606;9.872;2022-08-18T14:50:18;27.30;99.90
13806;DHT22;6974;53.606;9.872;2022-08-18T14:52:45;27.10;99.90
13806;DHT22;6974;53.606;9.872;2022-08-18T14:55:13;27.10;99.90
13806;DHT22;6974;53.606;9.872;2022-08-18T14:57:41;27.10;99.90
13806;DHT22;6974;53.606;9.872;2022-08-18T15:00:11;27.00;99.90
13806;DHT22;6974;53.606;9.872;2022-08-18T15:02:40;27.00;99.90
13806;DHT22;6974;53.606;9.872;2022-08-18T15:05:08;27.10;99.90
13806;DHT22;6974;53.606;9.872;2022-08-18T15:07:36;27.20;99.90
13806;DHT22;6974;53.606;9.872;2022-08-18T15:10:03;27.30;99.90
13806;DHT22;6974;53.606;9.872;2022-08-18T15:12:30;27.10;99.90
13806;DHT22;6974;53.606;9.872;2022-08-18T15:14:59;27.10;99.90
13806;DHT22;6974;53.606;9.872;2022-08-18T15:17:26;27.00;99.90
13806;DHT22;6974;53.606;9.872;2022-08-18T15:19:52;26.90;99.90
13806;DHT22;6974;53.606;9.872;2022-08-18T15:22:20;26.90;99.90
13806;DHT22;6974;53.606;9.872;2022-08-18T15:25:06;26.80;99.90
13806;DHT22;6974;53.606;9.872;2022-08-18T15:27:51;26.90;99.90
13806;DHT22;6974;53.606;9.872;2022-08-18T15:30:20;26.90;99.90
13806;DHT22;6974;53.606;9.872;2022-08-18T15:32:48;27.00;99.90
13806;DHT22;6974;53.606;9.872;2022-08-18T15:35:15;27.10;99.90
13806;DHT22;6974;53.606;9.872;2022-08-18T15:37:43;27.20;99.90
13806;DHT22;6974;53.606;9.872;2022-08-18T15:40:12;27.30;99.90
13806;DHT22;6974;53.606;9.872;2022-08-18T15:42:43;27.40;99.90
13806;DHT22;6974;53.606;9.872;2022-08-18T15:45:15;27.50;99.90
13806;DHT22;6974;53.606;9.872;2022-08-18T15:47:43;27.50;99.90
13806;DHT22;6974;53.606;9.872;2022-08-18T15:50:12;27.60;99.90
13806;DHT22;6974;53.606;9.872;2022-08-18T15:52:48;27.50;99.90
13806;DHT22;6974;53.606;9.872;2022-08-18T15:55:15;27.50;99.90
13806;DHT22;6974;53.606;9.872;2022-08-18T15:57:43;27.40;99.90
13806;DHT22;6974;53.606;9.872;2022-08-18T16:00:11;27.20;99.90
13806;DHT22;6974;53.606;9.872;2022-08-18T16:02:46;27.10;99.90
13806;DHT22;6974;53.606;9.872;2022-08-18T16:05:14;27.00;99.90
13806;DHT22;6974;53.606;9.872;2022-08-18T16:07:41;26.80;99.90
13806;DHT22;6974;53.606;9.872;2022-08-18T16:10:12;26.70;99.90
13806;DHT22;6974;53.606;9.872;2022-08-18T16:12:39;26.50;99.90
13806;DHT22;6974;53.606;9.872;2022-08-18T16:15:07;26.30;99.90
13806;DHT22;6974;53.606;9.872;2022-08-18T16:17:34;26.20;99.90
13806;DHT22;6974;53.606;9.872;2022-08-18T16:20:03;26.10;99.90
13806;DHT22;6974;53.606;9.872;2022-08-18T16:22:30;25.90;99.90
13806;DHT22;6974;53.606;9.872;2022-08-18T16:24:57;25.90;99.90
13806;DHT22;6974;53.606;9.872;2022-08-18T16:27:27;25.80;99.90
13806;DHT22;6974;53.606;9.872;2022-08-18T16:29:56;25.70;99.90
13806;DHT22;6974;53.606;9.872;2022-08-18T16:32:23;25.70;99.90
13806;DHT22;6974;53.606;9.872;2022-08-18T16:34:49;25.70;99.90
13806;DHT22;6974;53.606;9.872;2022-08-18T16:37:18;25.60;99.90
13806;DHT22;6974;53.606;9.872;2022-08-18T16:39:45;25.50;99.90